createdAt,value
2017-02-22T00:01:26.554Z,100
2017-02-22T00:03:23.763Z,100
2017-02-22T00:05:16.138Z,100
2017-02-22T00:07:13.371Z,100
2017-02-22T00:09:05.824Z,100
2017-02-22T00:11:08.216Z,100
2017-02-22T00:15:06.154Z,100
2017-02-22T00:17:03.604Z,100
2017-02-22T00:19:10.942Z,100
2017-02-22T00:21:03.251Z,100
2017-02-22T00:23:10.461Z,100
2017-02-22T00:25:17.758Z,100
2017-02-22T00:27:25.059Z,100
2017-02-22T00:29:22.351Z,100
2017-02-22T00:31:24.676Z,100
2017-02-22T00:33:32.003Z,100
2017-02-22T00:35:34.373Z,100
2017-02-22T00:37:36.737Z,100
2017-02-22T00:39:39.105Z,100
2017-02-22T00:41:26.419Z,100
2017-02-22T00:43:23.749Z,100
2017-02-22T00:45:36.081Z,100
2017-02-22T00:47:33.643Z,100
2017-02-22T00:49:40.879Z,100
2017-02-22T00:51:33.095Z,100
2017-02-22T00:53:25.408Z,100
2017-02-22T00:55:27.797Z,100
2017-02-22T00:57:25.044Z,100
2017-02-22T00:59:32.447Z,100
2017-02-22T01:01:39.719Z,100
2017-02-22T01:03:42.092Z,100
2017-02-22T01:05:49.233Z,100
2017-02-22T01:07:46.541Z,100
2017-02-22T01:09:48.924Z,100
2017-02-22T01:11:41.242Z,100
2017-02-22T01:13:48.503Z,100
2017-02-22T01:15:45.796Z,100
2017-02-22T01:17:53.164Z,100
2017-02-22T01:20:05.796Z,100
2017-02-22T01:22:13.601Z,100
2017-02-22T01:24:20.958Z,100
2017-02-22T01:26:18.180Z,100
2017-02-22T01:28:25.327Z,100
2017-02-22T01:30:33.340Z,100
2017-02-22T01:32:20.571Z,100
2017-02-22T01:34:17.934Z,100
2017-02-22T01:36:15.153Z,100
2017-02-22T01:38:17.435Z,100
2017-02-22T01:40:14.745Z,100
2017-02-22T01:41:57.187Z,100
2017-02-22T01:43:54.391Z,100
2017-02-22T01:46:06.734Z,100
2017-02-22T01:48:09.119Z,100
2017-02-22T01:50:01.585Z,100
2017-02-22T01:52:04.099Z,100
2017-02-22T01:53:56.737Z,100
2017-02-22T01:55:59.342Z,100
2017-02-22T01:57:56.865Z,100
2017-02-22T02:00:04.082Z,100
2017-02-22T02:02:01.326Z,100
2017-02-22T02:03:53.783Z,100
2017-02-22T02:05:55.976Z,100
2017-02-22T02:07:48.239Z,100
2017-02-22T02:09:50.526Z,100
2017-02-22T02:12:02.964Z,100
2017-02-22T02:14:05.253Z,100
2017-02-22T02:16:02.566Z,100
2017-02-22T02:18:04.815Z,100
2017-02-22T02:20:07.250Z,100
2017-02-22T02:21:59.587Z,100
2017-02-22T02:24:06.825Z,100
2017-02-22T02:25:59.180Z,100
2017-02-22T02:27:51.413Z,100
2017-02-22T02:30:04.083Z,100
2017-02-22T02:32:16.511Z,100
2017-02-22T02:34:13.769Z,100
2017-02-22T02:36:16.061Z,100
2017-02-22T02:38:18.368Z,100
2017-02-22T02:40:20.746Z,100
2017-02-22T02:42:18.130Z,100
2017-02-22T02:44:25.485Z,100
2017-02-22T02:46:37.801Z,100
2017-02-22T02:48:30.248Z,100
2017-02-22T02:50:37.564Z,100
2017-02-22T02:52:25.090Z,100
2017-02-22T02:54:17.599Z,100
2017-02-22T02:56:14.838Z,100
2017-02-22T02:58:17.150Z,100
2017-02-22T03:00:09.405Z,100
2017-02-22T03:02:11.791Z,100
2017-02-22T03:04:19.185Z,100
2017-02-22T03:06:26.540Z,100
2017-02-22T03:08:28.918Z,100
2017-02-22T03:10:26.265Z,100
2017-02-22T03:12:23.581Z,100
2017-02-22T03:14:26.763Z,100
2017-02-22T03:16:29.066Z,100
2017-02-22T03:18:26.403Z,100
2017-02-22T03:20:18.999Z,100
2017-02-22T03:22:26.596Z,100
2017-02-22T03:24:28.853Z,100
2017-02-22T03:26:21.171Z,100
2017-02-22T03:28:23.600Z,100
2017-02-22T03:30:20.993Z,100
2017-02-22T03:32:18.227Z,100
2017-02-22T03:34:16.469Z,100
2017-02-22T03:36:23.633Z,100
2017-02-22T03:38:20.932Z,100
2017-02-22T03:40:18.542Z,100
2017-02-22T03:42:25.798Z,100
2017-02-22T03:44:33.199Z,100
2017-02-22T03:46:20.776Z,100
2017-02-22T03:48:18.210Z,100
2017-02-22T03:50:15.609Z,100
2017-02-22T03:52:13.043Z,100
2017-02-22T03:54:20.318Z,100
2017-02-22T03:56:22.682Z,100
2017-02-22T03:58:24.932Z,100
2017-02-22T04:00:22.210Z,100
2017-02-22T04:02:24.463Z,100
2017-02-22T04:04:16.895Z,100
2017-02-22T04:06:14.157Z,100
2017-02-22T04:08:21.394Z,100
2017-02-22T04:10:18.734Z,100
2017-02-22T04:12:16.302Z,100
2017-02-22T04:14:09.037Z,100
2017-02-22T04:16:01.399Z,100
2017-02-22T04:17:58.881Z,100
2017-02-22T04:20:06.427Z,100
2017-02-22T04:22:03.631Z,100
2017-02-22T04:24:01.024Z,100
2017-02-22T04:26:03.451Z,100
2017-02-22T04:28:15.695Z,100
2017-02-22T04:30:22.953Z,100
2017-02-22T04:32:20.296Z,100
2017-02-22T04:34:07.704Z,100
2017-02-22T04:36:00.144Z,100
2017-02-22T04:37:52.448Z,100
2017-02-22T04:39:49.710Z,100
2017-02-22T04:41:51.963Z,100
2017-02-22T04:43:54.223Z,100
2017-02-22T04:45:46.706Z,100
2017-02-22T04:47:59.595Z,100
2017-02-22T04:50:02.246Z,100
2017-02-22T04:51:59.545Z,100
2017-02-22T04:53:56.986Z,100
2017-02-22T04:55:54.270Z,100
2017-02-22T04:58:06.491Z,100
2017-02-22T05:00:08.835Z,100
2017-02-22T05:02:10.981Z,100
2017-02-22T05:04:03.390Z,100
2017-02-22T05:06:00.850Z,100
2017-02-22T05:07:58.134Z,100
2017-02-22T05:10:00.542Z,100
2017-02-22T05:12:02.813Z,100
2017-02-22T05:14:10.211Z,100
2017-02-22T05:16:12.639Z,100
2017-02-22T05:18:10.048Z,100
2017-02-22T05:20:07.394Z,100
2017-02-22T05:22:04.776Z,100
2017-02-22T05:24:02.395Z,100
2017-02-22T05:26:04.614Z,100
2017-02-22T05:28:02.011Z,100
2017-02-22T05:29:59.494Z,100
2017-02-22T05:32:01.818Z,100
2017-02-22T05:34:09.199Z,100
2017-02-22T05:36:11.395Z,100
2017-02-22T05:38:09.759Z,100
2017-02-22T05:40:17.123Z,100
2017-02-22T05:42:19.488Z,100
2017-02-22T05:44:21.754Z,100
2017-02-22T05:46:29.149Z,100
2017-02-22T05:48:36.373Z,100
2017-02-22T05:50:38.617Z,100
2017-02-22T05:52:35.935Z,100
2017-02-22T05:54:43.135Z,100
2017-02-22T05:56:40.860Z,100
2017-02-22T05:58:43.189Z,100
2017-02-22T06:00:40.637Z,100
2017-02-22T06:02:43.037Z,100
2017-02-22T06:04:45.398Z,100
2017-02-22T06:06:37.632Z,100
2017-02-22T06:08:44.851Z,100
2017-02-22T06:10:42.123Z,100
2017-02-22T06:12:44.464Z,100
2017-02-22T06:14:46.815Z,100
2017-02-22T06:16:49.007Z,100
2017-02-22T06:18:46.302Z,100
2017-02-22T06:20:53.500Z,100
2017-02-22T06:22:55.739Z,100
2017-02-22T06:24:58.060Z,100
2017-02-22T06:26:55.392Z,100
2017-02-22T06:29:02.698Z,100
2017-02-22T06:30:50.043Z,100
2017-02-22T06:32:52.566Z,100
2017-02-22T06:34:59.845Z,100
2017-02-22T06:36:57.353Z,100
2017-02-22T06:38:59.883Z,100
2017-02-22T06:41:07.084Z,100
2017-02-22T06:42:59.341Z,100
2017-02-22T06:45:01.583Z,100
2017-02-22T06:47:04.095Z,100
2017-02-22T06:49:01.336Z,100
2017-02-22T06:51:08.560Z,100
2017-02-22T06:53:05.841Z,100
2017-02-22T06:55:08.191Z,100
2017-02-22T06:57:05.588Z,100
2017-02-22T06:59:07.840Z,100
2017-02-22T07:01:10.128Z,100
2017-02-22T07:03:07.550Z,100
2017-02-22T07:05:09.845Z,100
2017-02-22T07:07:22.512Z,100
2017-02-22T07:09:25.018Z,100
2017-02-22T07:11:27.680Z,100
2017-02-22T07:13:26.337Z,100
2017-02-22T07:15:24.572Z,100
2017-02-22T07:17:22.160Z,100
2017-02-22T07:19:19.621Z,100
2017-02-22T07:21:17.256Z,100
2017-02-22T07:23:19.569Z,100
2017-02-22T07:25:11.906Z,100
2017-02-22T07:27:14.258Z,100
2017-02-22T07:29:01.851Z,100
2017-02-22T07:30:54.286Z,100
2017-02-22T07:32:41.777Z,100
2017-02-22T07:34:39.863Z,100
2017-02-22T07:36:37.291Z,100
2017-02-22T07:38:29.892Z,100
2017-02-22T07:40:32.300Z,100
2017-02-22T07:42:34.535Z,100
2017-02-22T07:44:32.065Z,100
2017-02-22T07:46:25.532Z,100
2017-02-22T07:48:22.842Z,100
2017-02-22T07:50:15.187Z,100
2017-02-22T07:52:12.517Z,100
2017-02-22T07:54:20.268Z,100
2017-02-22T07:56:12.676Z,100
2017-02-22T07:58:15.112Z,100
2017-02-22T08:00:07.399Z,100
2017-02-22T08:01:49.963Z,100
2017-02-22T08:03:47.492Z,100
2017-02-22T08:05:54.794Z,100
2017-02-22T08:07:57.579Z,100
2017-02-22T08:10:00.046Z,100
2017-02-22T08:11:47.416Z,100
2017-02-22T08:13:58.005Z,100
2017-02-22T08:16:00.474Z,100
2017-02-22T08:17:47.887Z,100
2017-02-22T08:19:45.646Z,100
2017-02-22T08:21:45.112Z,100
2017-02-22T08:23:47.453Z,100
2017-02-22T08:25:49.899Z,100
2017-02-22T08:27:47.346Z,100
2017-02-22T08:29:39.662Z,100
2017-02-22T08:31:47.128Z,100
2017-02-22T08:33:24.837Z,100
2017-02-22T08:35:27.114Z,100
2017-02-22T08:37:34.293Z,100
2017-02-22T08:39:36.572Z,100
2017-02-22T08:41:24.109Z,100
2017-02-22T08:43:21.402Z,100
2017-02-22T08:45:28.593Z,100
2017-02-22T08:47:30.879Z,100
2017-02-22T08:49:28.465Z,100
2017-02-22T08:51:25.793Z,100
2017-02-22T08:53:13.075Z,100
2017-02-22T08:55:20.277Z,100
2017-02-22T08:57:27.584Z,100
2017-02-22T08:59:19.895Z,100
2017-02-22T09:01:22.308Z,100
2017-02-22T09:03:24.652Z,100
2017-02-22T09:05:26.934Z,100
2017-02-22T09:07:24.660Z,100
2017-02-22T09:09:22.116Z,100
2017-02-22T09:11:24.374Z,100
2017-02-22T09:13:36.638Z,100
2017-02-22T09:15:38.970Z,100
2017-02-22T09:17:41.401Z,100
2017-02-22T09:19:38.820Z,100
2017-02-22T09:21:46.600Z,81.99
2017-02-22T09:23:53.766Z,91.84
2017-02-22T09:25:51.198Z,100
2017-02-22T09:27:53.617Z,100
2017-02-22T09:29:57.331Z,100
2017-02-22T09:31:54.765Z,100
2017-02-22T09:34:02.097Z,100
2017-02-22T09:35:59.503Z,100
2017-02-22T09:38:01.744Z,100
2017-02-22T09:40:09.011Z,100
2017-02-22T09:42:16.308Z,100
2017-02-22T09:44:18.552Z,100
2017-02-22T09:46:10.865Z,100
2017-02-22T09:48:08.273Z,100
2017-02-22T09:50:00.607Z,100
2017-02-22T09:52:07.910Z,100
2017-02-22T09:54:10.205Z,83.01
2017-02-22T09:56:17.548Z,100
2017-02-22T09:58:19.929Z,100
2017-02-22T10:00:22.357Z,100
2017-02-22T10:02:29.756Z,100
2017-02-22T10:04:32.173Z,100
2017-02-22T10:06:39.621Z,100
2017-02-22T10:08:36.865Z,100
2017-02-22T10:10:49.268Z,100
2017-02-22T10:12:56.625Z,100
2017-02-22T10:14:54.048Z,100
2017-02-22T10:16:46.496Z,100
2017-02-22T10:18:38.724Z,100
2017-02-22T10:20:40.917Z,100
2017-02-22T10:22:38.109Z,100
2017-02-22T10:24:35.517Z,100
2017-02-22T10:26:33.005Z,100
2017-02-22T10:28:34.401Z,100
2017-02-22T10:30:21.908Z,100
2017-02-22T10:32:19.231Z,100
2017-02-22T10:34:11.797Z,100
2017-02-22T10:36:09.070Z,100
2017-02-22T10:38:06.326Z,100
2017-02-22T10:40:03.679Z,100
2017-02-22T10:42:01.011Z,100
2017-02-22T10:44:03.376Z,100
2017-02-22T10:46:10.697Z,100
2017-02-22T10:48:03.131Z,100
2017-02-22T10:49:50.504Z,100
2017-02-22T10:51:57.763Z,100
2017-02-22T10:53:55.041Z,100
2017-02-22T10:55:52.380Z,100
2017-02-22T10:57:49.799Z,100
2017-02-22T10:59:57.127Z,100
2017-02-22T11:01:54.403Z,100
2017-02-22T11:04:01.792Z,100
2017-02-22T11:06:09.004Z,100
2017-02-22T11:08:11.374Z,100
2017-02-22T11:10:13.878Z,100
2017-02-22T11:12:21.111Z,100
2017-02-22T11:14:18.576Z,100
2017-02-22T11:16:21.047Z,100
2017-02-22T11:18:28.394Z,100
2017-02-22T11:20:25.883Z,100
2017-02-22T11:22:23.141Z,100
2017-02-22T11:24:25.381Z,100
2017-02-22T11:26:22.664Z,100
2017-02-22T11:28:25.020Z,100
2017-02-22T11:30:32.386Z,100
2017-02-22T11:32:34.880Z,100
2017-02-22T11:34:40.136Z,100
2017-02-22T11:36:42.409Z,100
2017-02-22T11:38:49.780Z,100
2017-02-22T11:40:42.175Z,100
2017-02-22T11:42:53.425Z,100
2017-02-22T11:44:55.922Z,100
2017-02-22T11:46:48.483Z,100
2017-02-22T11:48:50.797Z,100
2017-02-22T11:50:43.049Z,100
2017-02-22T11:52:45.692Z,100
2017-02-22T11:54:53.033Z,100
2017-02-22T11:56:55.442Z,100
2017-02-22T11:58:57.730Z,100
2017-02-22T12:00:59.920Z,100
2017-02-22T12:02:47.559Z,100
2017-02-22T12:04:50.056Z,100
2017-02-22T12:06:47.427Z,100
2017-02-22T12:08:49.831Z,100
2017-02-22T12:10:57.065Z,100
2017-02-22T12:12:44.423Z,100
2017-02-22T12:14:51.830Z,100
2017-02-22T12:16:54.737Z,100
2017-02-22T12:18:58.350Z,100
2017-02-22T12:21:11.042Z,100
2017-02-22T12:23:08.757Z,100
2017-02-22T12:25:16.121Z,100
2017-02-22T12:27:13.512Z,100
2017-02-22T12:29:25.753Z,100
2017-02-22T12:31:18.209Z,100
2017-02-22T12:33:20.692Z,100
2017-02-22T12:35:18.116Z,100
2017-02-22T12:37:15.603Z,100
2017-02-22T12:39:13.101Z,100
2017-02-22T12:41:10.455Z,100
2017-02-22T12:43:06.715Z,100
2017-02-22T12:44:59.088Z,100
2017-02-22T12:47:11.419Z,100
2017-02-22T12:49:08.720Z,100
2017-02-22T12:51:10.998Z,100
2017-02-22T12:53:18.220Z,100
2017-02-22T12:55:15.541Z,100
2017-02-22T12:57:11.822Z,100
2017-02-22T12:59:13.971Z,100
2017-02-22T13:01:16.300Z,100
2017-02-22T13:03:13.675Z,100
2017-02-22T13:05:15.110Z,100
2017-02-22T13:07:17.592Z,100
2017-02-22T13:09:09.830Z,100
2017-02-22T13:11:07.162Z,100
2017-02-22T13:13:04.492Z,100
2017-02-22T13:15:06.846Z,100
2017-02-22T13:17:04.185Z,100
2017-02-22T13:19:02.324Z,100
2017-02-22T13:21:09.892Z,100
2017-02-22T13:23:12.292Z,100
2017-02-22T13:25:19.679Z,100
2017-02-22T13:27:12.053Z,100
2017-02-22T13:29:17.393Z,100
2017-02-22T13:31:21.381Z,100
2017-02-22T13:33:23.752Z,100
2017-02-22T13:35:26.046Z,100
2017-02-22T13:37:18.389Z,100
2017-02-22T13:39:15.746Z,100
2017-02-22T13:41:08.139Z,100
2017-02-22T13:43:00.692Z,100
2017-02-22T13:44:58.145Z,100
2017-02-22T13:46:55.617Z,100
2017-02-22T13:48:42.975Z,100
2017-02-22T13:50:45.256Z,100
2017-02-22T13:52:42.577Z,100
2017-02-22T13:54:34.985Z,100
2017-02-22T13:56:32.424Z,100
2017-02-22T13:58:34.792Z,100
2017-02-22T14:00:27.024Z,100
2017-02-22T14:02:14.456Z,100
2017-02-22T14:04:11.757Z,100
2017-02-22T14:06:14.098Z,100
2017-02-22T14:08:21.459Z,100
2017-02-22T14:10:18.870Z,100
2017-02-22T14:12:19.648Z,100
2017-02-22T14:14:12.303Z,100
2017-02-22T14:16:14.493Z,100
2017-02-22T14:18:16.750Z,100
2017-02-22T14:20:19.155Z,100
2017-02-22T14:22:21.659Z,100
2017-02-22T14:24:23.916Z,100
2017-02-22T14:26:26.360Z,100
2017-02-22T14:28:28.599Z,100
2017-02-22T14:30:20.919Z,100
2017-02-22T14:32:23.248Z,100
2017-02-22T14:34:22.994Z,100
2017-02-22T14:36:05.376Z,100
2017-02-22T14:38:12.710Z,100
2017-02-22T14:40:20.213Z,100
2017-02-22T14:42:17.711Z,100
2017-02-22T14:44:30.118Z,100
2017-02-22T14:46:31.108Z,100
2017-02-22T14:48:40.268Z,100
2017-02-22T14:51:03.096Z,100
2017-02-22T14:53:37.819Z,100
2017-02-22T14:55:58.234Z,100
2017-02-22T14:58:18.379Z,100
2017-02-22T15:00:42.099Z,100
2017-02-22T15:03:06.553Z,100
2017-02-22T15:05:25.733Z,100
2017-02-22T15:07:54.068Z,100
2017-02-22T15:10:32.891Z,100
2017-02-22T15:13:14.567Z,100
2017-02-22T15:15:40.028Z,100
2017-02-22T15:18:15.252Z,100
2017-02-22T15:20:56.952Z,100
2017-02-22T15:23:39.054Z,100
2017-02-22T15:26:20.809Z,100
2017-02-22T15:29:04.508Z,100
2017-02-22T15:31:35.457Z,100
2017-02-22T15:33:40.737Z,100
2017-02-22T15:35:38.027Z,100
2017-02-22T15:37:35.395Z,100
2017-02-22T15:39:27.758Z,100
2017-02-22T15:41:35.221Z,100
2017-02-22T15:43:32.673Z,100
2017-02-22T15:45:35.087Z,100
2017-02-22T15:47:37.433Z,100
2017-02-22T15:49:39.716Z,100
2017-02-22T15:51:40.415Z,100
2017-02-22T15:53:42.784Z,100
2017-02-22T15:55:50.055Z,100
2017-02-22T15:57:47.555Z,100
2017-02-22T15:59:44.993Z,100
2017-02-22T16:01:52.291Z,100
2017-02-22T16:03:49.640Z,100
2017-02-22T16:05:47.067Z,100
2017-02-22T16:07:49.495Z,100
2017-02-22T16:09:41.990Z,100
2017-02-22T16:11:19.467Z,100
2017-02-22T16:13:16.949Z,100
2017-02-22T16:15:29.287Z,100
2017-02-22T16:17:41.675Z,100
2017-02-22T16:19:44.066Z,100
2017-02-22T16:21:41.365Z,100
2017-02-22T16:23:29.173Z,100
2017-02-22T16:25:41.498Z,100
2017-02-22T16:27:43.833Z,100
2017-02-22T16:29:51.063Z,100
2017-02-22T16:31:53.245Z,100
2017-02-22T16:33:50.753Z,100
2017-02-22T16:35:57.988Z,100
2017-02-22T16:37:50.315Z,100
2017-02-22T16:39:32.712Z,100
2017-02-22T16:41:20.115Z,100
2017-02-22T16:43:12.445Z,100
2017-02-22T16:45:14.784Z,100
2017-02-22T16:47:17.211Z,100
2017-02-22T16:49:24.439Z,100
2017-02-22T16:51:36.801Z,100
2017-02-22T16:53:34.582Z,100
2017-02-22T16:55:27.038Z,100
2017-02-22T16:57:34.213Z,100
2017-02-22T16:59:26.611Z,100
2017-02-22T17:01:39.105Z,100
2017-02-22T17:03:36.354Z,100
2017-02-22T17:05:48.903Z,100
2017-02-22T17:07:41.194Z,100
2017-02-22T17:09:38.405Z,100
2017-02-22T17:11:45.689Z,100
2017-02-22T17:13:43.709Z,100
2017-02-22T17:15:36.020Z,100
2017-02-22T17:17:33.641Z,100
2017-02-22T17:19:26.179Z,100
2017-02-22T17:21:13.594Z,100
2017-02-22T17:23:21.127Z,100
2017-02-22T17:25:08.605Z,100
2017-02-22T17:27:16.175Z,100
2017-02-22T17:29:08.407Z,100
2017-02-22T17:31:10.955Z,100
2017-02-22T17:33:03.345Z,100
2017-02-22T17:35:00.786Z,100
2017-02-22T17:37:08.130Z,100
2017-02-22T17:39:20.487Z,100
2017-02-22T17:41:27.795Z,100
2017-02-22T17:43:20.445Z,100
2017-02-22T17:45:22.777Z,100
2017-02-22T17:47:35.151Z,100
2017-02-22T17:49:32.379Z,100
2017-02-22T17:51:29.718Z,100
2017-02-22T17:53:31.972Z,100
2017-02-22T17:55:39.214Z,100
2017-02-22T17:57:41.555Z,100
2017-02-22T17:59:49.043Z,100
2017-02-22T18:02:01.556Z,100
2017-02-22T18:04:08.899Z,100
2017-02-22T18:06:11.304Z,100
2017-02-22T18:08:08.640Z,100
2017-02-22T18:10:05.890Z,100
2017-02-22T18:12:18.191Z,100
2017-02-22T18:14:25.408Z,100
2017-02-22T18:16:22.652Z,100
2017-02-22T18:18:21.012Z,100
2017-02-22T18:20:16.971Z,100
2017-02-22T18:22:31.380Z,100
2017-02-22T18:24:33.920Z,100
2017-02-22T18:26:36.229Z,100
2017-02-22T18:28:18.925Z,100
2017-02-22T18:30:26.266Z,100
2017-02-22T18:34:34.676Z,100
2017-02-22T18:36:27.167Z,100
2017-02-22T18:38:25.055Z,100
2017-02-22T18:40:27.481Z,100
2017-02-22T18:42:24.839Z,100
2017-02-22T18:44:22.243Z,100
2017-02-22T18:46:14.617Z,100
2017-02-22T18:48:11.922Z,100
2017-02-22T18:50:19.448Z,100
2017-02-22T18:52:21.844Z,100
2017-02-22T18:54:24.412Z,100
2017-02-22T18:56:26.924Z,100
2017-02-22T18:58:24.438Z,100
2017-02-22T19:00:36.743Z,100
2017-02-22T19:02:39.085Z,100
2017-02-22T19:04:36.477Z,100
2017-02-22T19:06:38.685Z,100
2017-02-22T19:08:41.008Z,100
2017-02-22T19:10:28.459Z,100
2017-02-22T19:12:25.967Z,100
2017-02-22T19:14:28.341Z,100
2017-02-22T19:16:30.600Z,100
2017-02-22T19:18:27.945Z,100
2017-02-22T19:20:30.424Z,100
2017-02-22T19:22:32.720Z,100
2017-02-22T19:24:25.052Z,100
2017-02-22T19:26:37.590Z,100
2017-02-22T19:28:35.016Z,100
2017-02-22T19:30:27.502Z,100
2017-02-22T19:32:30.237Z,100
2017-02-22T19:34:31.201Z,100
2017-02-22T19:36:39.173Z,100
2017-02-22T19:38:36.501Z,100
2017-02-22T19:40:39.482Z,100
2017-02-22T19:42:42.226Z,100
2017-02-22T19:44:44.895Z,100
2017-02-22T19:46:42.555Z,100
2017-02-22T19:48:35.045Z,100
2017-02-22T19:50:27.696Z,100
2017-02-22T19:52:35.061Z,100
2017-02-22T19:54:43.058Z,100
2017-02-22T19:56:30.451Z,100
2017-02-22T19:58:33.287Z,100
2017-02-22T20:00:40.691Z,100
2017-02-22T20:02:38.615Z,100
2017-02-22T20:04:41.405Z,100
2017-02-22T20:06:34.262Z,100
2017-02-22T20:08:32.245Z,100
2017-02-22T20:10:45.299Z,100
2017-02-22T20:13:00.061Z,100
2017-02-22T20:15:08.022Z,100
2017-02-22T20:17:11.328Z,100
2017-02-22T20:19:25.265Z,100
2017-02-22T20:21:12.893Z,100
2017-02-22T20:23:25.647Z,100
2017-02-22T20:25:28.757Z,100
2017-02-22T20:27:21.408Z,100
2017-02-22T20:29:23.839Z,100
2017-02-22T20:31:16.655Z,100
2017-02-22T20:33:24.728Z,100
2017-02-22T20:35:27.222Z,100
2017-02-22T20:37:26.471Z,100
2017-02-22T20:39:33.927Z,100
2017-02-22T20:41:46.233Z,100
2017-02-22T20:43:38.996Z,100
2017-02-22T20:45:36.527Z,100
2017-02-22T20:47:38.855Z,100
2017-02-22T20:49:46.292Z,100
2017-02-22T20:51:48.999Z,100
2017-02-22T20:53:46.496Z,100
2017-02-22T20:55:49.329Z,100
2017-02-22T20:57:51.732Z,100
2017-02-22T20:59:59.384Z,100
2017-02-22T21:01:56.968Z,100
2017-02-22T21:03:59.640Z,100
2017-02-22T21:05:57.068Z,100
2017-02-22T21:07:54.583Z,100
2017-02-22T21:09:57.077Z,100
2017-02-22T21:12:00.487Z,100
2017-02-22T21:14:02.808Z,100
2017-02-22T21:16:05.230Z,100
2017-02-22T21:17:57.541Z,100
2017-02-22T21:19:50.135Z,100
2017-02-22T21:21:42.408Z,100
2017-02-22T21:23:49.713Z,100
2017-02-22T21:26:05.288Z,100
2017-02-22T21:28:28.812Z,100
2017-02-22T21:30:21.524Z,100
2017-02-22T21:32:30.328Z,100
2017-02-22T21:34:32.627Z,100
2017-02-22T21:36:35.801Z,100
2017-02-22T21:38:44.294Z,100
2017-02-22T21:40:58.833Z,100
2017-02-22T21:43:04.132Z,100
2017-02-22T21:45:07.988Z,100
2017-02-22T21:47:11.665Z,100
2017-02-22T21:49:17.449Z,100
2017-02-22T21:51:28.563Z,85.49
2017-02-22T21:53:33.563Z,100
2017-02-22T21:55:49.126Z,100
2017-02-22T21:57:52.968Z,100
2017-02-22T21:59:47.710Z,100
2017-02-22T22:01:57.395Z,100
2017-02-22T22:04:07.193Z,100
2017-02-22T22:06:11.356Z,100
2017-02-22T22:08:11.432Z,100
2017-02-22T22:10:22.591Z,100
2017-02-22T22:12:27.940Z,100
2017-02-22T22:14:42.197Z,100
2017-02-22T22:16:47.672Z,84.4
2017-02-22T22:19:04.129Z,100
2017-02-22T22:21:10.069Z,83.85
2017-02-22T22:23:27.794Z,83.85
2017-02-22T22:25:37.224Z,83.75
2017-02-22T22:27:43.281Z,83.95
2017-02-22T22:29:50.589Z,83.85
2017-02-22T22:31:57.864Z,84.09
2017-02-22T22:34:05.217Z,83.95
2017-02-22T22:36:07.537Z,84.5
2017-02-22T22:38:09.922Z,83.75
2017-02-22T22:40:12.221Z,83.64
2017-02-22T22:42:24.513Z,83.95
2017-02-22T22:44:30.478Z,83.95
2017-02-22T22:46:41.406Z,83.99
2017-02-22T22:48:45.540Z,84.2
2017-02-22T22:50:58.469Z,83.99
2017-02-22T22:52:57.776Z,84.44
2017-02-22T22:55:12.736Z,84.64
2017-02-22T22:57:31.968Z,83.99
2017-02-22T22:59:34.186Z,100
2017-02-22T23:02:13.139Z,100
2017-02-22T23:04:15.445Z,100
2017-02-22T23:06:13.961Z,100
2017-02-22T23:08:11.252Z,100
2017-02-22T23:10:08.557Z,100
2017-02-22T23:12:10.896Z,100
2017-02-22T23:14:13.235Z,100
2017-02-22T23:16:10.552Z,100
2017-02-22T23:18:12.869Z,100
2017-02-22T23:20:20.073Z,100
2017-02-22T23:22:22.576Z,100
2017-02-22T23:24:29.924Z,100
2017-02-22T23:26:37.136Z,100
2017-02-22T23:28:19.550Z,100
2017-02-22T23:30:21.891Z,100
2017-02-22T23:32:14.198Z,100
2017-02-22T23:34:16.682Z,100
2017-02-22T23:36:24.079Z,100
2017-02-22T23:38:21.360Z,100
2017-02-22T23:40:18.633Z,100
2017-02-22T23:42:20.908Z,100
2017-02-22T23:44:23.156Z,100
2017-02-22T23:46:25.543Z,100
2017-02-22T23:48:27.818Z,100
2017-02-22T23:50:35.019Z,100
2017-02-22T23:52:37.210Z,100
2017-02-22T23:54:39.602Z,100
2017-02-22T23:56:51.904Z,100
2017-02-22T23:58:54.427Z,100
